Aviation Digital Data Service (ADDS)

Output produced by METARs form (0729 UTC 01 September 2014)
found at http://www.aviationweather.gov/adds/metars/
 
KTHV 010653Z AUTO 00000KT 7SM CLR 21/21 A3002 RMK AO2 SLP164 T02110206
KTHV 010553Z AUTO 00000KT 8SM SCT042 22/21 A3002 RMK AO2 SLP162 60003 T02170206 10250 20211 58004
KTHV 010453Z AUTO 00000KT 7SM FEW065 22/21 A3002 RMK AO2 SLP164 T02170211 403110217
KTHV 010353Z AUTO 00000KT 8SM BKN060 22/21 A3003 RMK AO2 SLP167 T02170211
KTHV 010253Z AUTO 00000KT 9SM FEW110 22/22 A3003 RMK AO2 SLP166 60003 T02220217 50004
KTHV 010153Z AUTO 34005KT 10SM FEW060 BKN075 23/22 A3004 RMK AO2 RAB08E20 SLP170 P0003 T02280217
KTHV 010053Z AUTO 20004KT 10SM BKN075 OVC090 24/22 A3002 RMK AO2 SLP165 T02390217
KTHV 312353Z AUTO 00000KT 10SM OVC095 24/22 A3002 RMK AO2 SLP162 60034 T02440217 10311 20228 51009
KTHV 312253Z AUTO 27003KT 10SM FEW120 26/22 A3001 RMK AO2 SLP160 T02610217
KTHV 312153Z AUTO 25004KT 10SM FEW045 FEW060 SCT080 27/22 A3000 RMK AO2 SLP156 T02720222
KTHV 312053Z AUTO VRB04KT 10SM CLR 29/23 A2999 RMK AO2 LTG DSNT SE SLP152 60034 T02890228 56014
KTHV 311953Z AUTO 20006KT 10SM FEW048 27/23 A3001 RMK AO2 PK WND 21028/1914 LTG DSNT SW RAB1856E31 SLP159 P0034 T02670233
KTHV 311935Z AUTO 19008G16KT 10SM FEW010 BKN050 BKN065 25/22 A3001 RMK AO2 PK WND 21028/1914 RAB1856E31 P0034 T02500222
KTHV 311928Z AUTO 19008G16KT 160V220 1 3/4SM -RA BR FEW010 SCT041 BKN050 24/22 A3002 RMK AO2 PK WND 21028/1914 RAB1856 P0034 T02390217
KTHV 311916Z AUTO 19016G28KT 3/4SM RA FEW015 BKN041 OVC080 26/22 A3003 RMK AO2 PK WND 21028/1914 RAB1856 PRESRR P0023 T02610222
KTHV 311853Z AUTO 22009G15KT 10SM SCT046 BKN065 BKN080 29/21 A3000 RMK AO2 SLP157 T02940211
KTHV 311753Z AUTO VRB04KT 10SM FEW046 FEW060 29/23 A3003 RMK AO2 SLP166 T02940228 10300 20239 58013
KTHV 311653Z AUTO 25006KT 10SM BKN036 BKN045 OVC050 28/22 A3005 RMK AO2 SLP174 T02830217
KTHV 311553Z AUTO 26008KT 10SM FEW029 SCT036 BKN110 28/22 A3007 RMK AO2 SLP180 T02830217
KTHV 311453Z AUTO 21009KT 10SM CLR 28/23 A3007 RMK AO2 SLP180 T02830228 58009
KTHV 311353Z AUTO 20007KT 10SM SCT019 SCT100 27/23 A3009 RMK AO2 SLP188 T02670228
KTHV 311328Z AUTO 21007KT 9SM FEW015 26/22 A3009 RMK AO2 T02560222
KTHV 311314Z AUTO 22007KT 9SM BKN015 25/22 A3009 RMK AO2 T02500222
KTHV 311253Z AUTO 21009KT 9SM OVC013 26/22 A3010 RMK AO2 SLP191 T02560222
KTHV 311153Z AUTO 20005KT 7SM OVC010 24/22 A3009 RMK AO2 SLP189 T02390222 10250 20228 53004
KTHV 311053Z AUTO 21003KT 6SM BR OVC011 24/22 A3009 RMK AO2 SLP188 T02390222
KTHV 310953Z AUTO 20003KT 8SM OVC011 23/22 A3008 RMK AO2 SLP186 T02330222
KTHV 310916Z AUTO 20003KT 7SM BKN011 23/22 A3008 RMK AO2 T02280217
KTHV 310853Z AUTO 00000KT 7SM CLR 23/22 A3008 RMK AO2 SLP185 T02280217 58010
KTHV 310831Z AUTO 00000KT 8SM FEW012 23/22 A3009 RMK AO2 T02280217
KTHV 310753Z AUTO 00000KT 10SM OVC012 23/22 A3010 RMK AO2 SLP190 T02330217
KTHV 310653Z AUTO VRB03KT 10SM OVC012 23/22 A3011 RMK AO2 SLP195 T02330217
KTHV 310638Z AUTO 00000KT 10SM BKN013 OVC027 23/22 A3011 RMK AO2 T02330217
KTHV 310610Z AUTO 00000KT 10SM BKN027 23/21 A3011 RMK AO2 T02330211
KTHV 310553Z AUTO 19004KT 10SM FEW027 23/21 A3011 RMK AO2 SLP196 T02280211 10233 20217 58007
KTHV 310453Z AUTO 00000KT 10SM FEW027 OVC095 23/21 A3013 RMK AO2 SLP200 T02330206 402720139
KTHV 310353Z AUTO VRB04KT 10SM BKN033 BKN110 23/20 A3013 RMK AO2 SLP202 T02280200
KTHV 310253Z AUTO 00000KT 10SM BKN033 23/19 A3013 RMK AO2 SLP202 T02280194 50003
KTHV 310153Z AUTO 14005KT 10SM BKN038 22/19 A3014 RMK AO2 SLP205 T02220189
KTHV 310053Z AUTO 15004KT 10SM SCT039 BKN060 22/19 A3014 RMK AO2 SLP205 T02220189
KTHV 302353Z AUTO 14004KT 10SM BKN032 BKN060 23/19 A3012 RMK AO2 SLP200 T02280189 10272 20228 55006
KTHV 302253Z AUTO 14006KT 10SM SCT034 24/19 A3012 RMK AO2 SLP199 T02440194
KTHV 302153Z AUTO 15005KT 10SM OVC033 26/20 A3013 RMK AO2 SLP202 T02610200
KTHV 302053Z AUTO VRB06KT 10SM OVC032 26/19 A3014 RMK AO2 SLP206 T02610194 56015
KTHV 301953Z AUTO VRB04KT 10SM BKN031 26/19 A3015 RMK AO2 SLP208 T02610194
KTHV 301934Z AUTO 20006KT 10SM BKN030 27/20 A3015 RMK AO2 T02720200